createdAt,value
2022-10-31T00:00:32.356Z,101267.53
2022-10-31T00:02:59.079Z,101281.47
2022-10-31T00:05:25.725Z,101266.78
2022-10-31T00:07:55.332Z,101276.38
2022-10-31T00:10:21.804Z,101265.06
2022-10-31T00:12:48.297Z,101278.97
2022-10-31T00:15:14.792Z,101276.38
2022-10-31T00:17:41.212Z,101276.38
2022-10-31T00:20:08.136Z,101275.47
2022-10-31T00:22:34.538Z,101277.31
2022-10-31T00:25:01.003Z,101277.31
2022-10-31T00:27:27.442Z,101272.91
2022-10-31T00:29:53.823Z,101271.16
2022-10-31T00:32:20.237Z,101295.47
2022-10-31T00:34:46.674Z,101293.69
2022-10-31T00:37:13.118Z,101293.69
2022-10-31T00:39:39.531Z,101302.41
2022-10-31T00:42:05.966Z,101302.41
2022-10-31T00:44:32.380Z,101309.34
2022-10-31T00:46:58.801Z,101304.91
2022-10-31T00:49:25.238Z,101303.91
2022-10-31T00:51:51.681Z,101300.28
2022-10-31T00:54:18.163Z,101305.38
2022-10-31T00:56:44.662Z,101305.28
2022-10-31T00:59:11.078Z,101300.91
2022-10-31T01:01:37.646Z,101308.63
2022-10-31T01:04:04.340Z,101311.06
2022-10-31T01:06:30.760Z,101310.19
2022-10-31T01:08:57.179Z,101311.78
2022-10-31T01:11:24.522Z,101319.59
2022-10-31T01:13:53.061Z,101313.50
2022-10-31T01:16:21.541Z,101307.41
2022-10-31T01:18:48.014Z,101310.84
2022-10-31T01:21:17.489Z,101309.97
2022-10-31T01:23:44.516Z,101315.19
2022-10-31T01:26:14.455Z,101309.97
2022-10-31T01:28:54.969Z,101313.41
2022-10-31T01:31:23.222Z,101308.97
2022-10-31T01:33:49.631Z,101313.22
2022-10-31T01:36:33.889Z,101312.16
2022-10-31T01:39:03.342Z,101315.59
2022-10-31T01:41:31.822Z,101313.81
2022-10-31T01:43:59.661Z,101319.88
2022-10-31T01:46:34.896Z,101322.44
2022-10-31T01:49:03.721Z,101321.44
2022-10-31T01:51:34.112Z,101321.44
2022-10-31T01:54:03.228Z,101329.28
2022-10-31T01:56:29.653Z,101329.22
2022-10-31T01:58:57.491Z,101327.41
2022-10-31T02:01:24.115Z,101329.03
2022-10-31T02:03:50.674Z,101335.09
2022-10-31T02:06:27.774Z,101334.09
2022-10-31T02:08:54.607Z,101334.88
2022-10-31T02:11:21.067Z,101334.06
2022-10-31T02:13:48.249Z,101333.94
2022-10-31T02:16:14.727Z,101332.16
2022-10-31T02:18:41.243Z,101331.22
2022-10-31T02:21:19.838Z,101333.75
2022-10-31T02:24:11.591Z,101341.47
2022-10-31T02:26:52.609Z,101339.75
2022-10-31T02:29:51.605Z,101345.81
2022-10-31T02:32:35.653Z,101337.16
2022-10-31T02:35:13.315Z,101344.97
2022-10-31T02:37:50.645Z,101344.03
2022-10-31T02:40:20.810Z,101345.81
2022-10-31T02:43:04.655Z,101346.63
2022-10-31T02:45:53.996Z,101350.91
2022-10-31T02:48:23.426Z,101351.75
2022-10-31T02:51:01.532Z,101355.19
2022-10-31T02:53:33.098Z,101359.38
2022-10-31T02:56:02.683Z,101367.13
2022-10-31T02:58:33.089Z,101371.34
2022-10-31T03:01:18.443Z,101376.47
2022-10-31T03:04:17.225Z,101377.09
2022-10-31T03:07:02.159Z,101377.81
2022-10-31T03:10:01.172Z,101385.53
2022-10-31T03:12:31.152Z,101388.06
2022-10-31T03:15:12.697Z,101391.47
2022-10-31T03:17:46.172Z,101388.72
2022-10-31T03:20:12.591Z,101390.38
2022-10-31T03:22:40.749Z,101400.75
2022-10-31T03:25:08.449Z,101398.91
2022-10-31T03:27:36.479Z,101400.56
2022-10-31T03:30:04.944Z,101405.63
2022-10-31T03:32:42.932Z,101409.91
2022-10-31T03:35:09.775Z,101411.56
2022-10-31T03:37:37.601Z,101419.38
2022-10-31T03:40:05.352Z,101415.81
2022-10-31T03:42:34.380Z,101410.63
2022-10-31T03:45:07.546Z,101416.72
2022-10-31T03:47:35.400Z,101420.19
2022-10-31T03:50:01.910Z,101424.47
2022-10-31T03:52:49.991Z,101427.06
2022-10-31T03:55:20.371Z,101424.34
2022-10-31T03:58:04.138Z,101428.63
2022-10-31T04:00:32.705Z,101423.31
2022-10-31T04:03:07.561Z,101418.00
2022-10-31T04:05:34.553Z,101428.41
2022-10-31T04:08:02.119Z,101426.63
2022-10-31T04:10:32.898Z,101430.84
2022-10-31T04:13:06.720Z,101422.09
2022-10-31T04:15:34.053Z,101420.31
2022-10-31T04:18:01.983Z,101427.16
2022-10-31T04:20:34.572Z,101426.25
2022-10-31T04:23:02.102Z,101420.97
2022-10-31T04:25:28.612Z,101428.66
2022-10-31T04:27:55.334Z,101428.66
2022-10-31T04:30:21.945Z,101436.41
2022-10-31T04:32:48.402Z,101438.06
2022-10-31T04:35:14.863Z,101435.41
2022-10-31T04:37:41.276Z,101437.09
2022-10-31T04:40:08.228Z,101442.19
2022-10-31T04:42:34.658Z,101437.72
2022-10-31T04:45:01.061Z,101446.25
2022-10-31T04:47:27.477Z,101447.97
2022-10-31T04:49:53.943Z,101440.91
2022-10-31T04:52:20.361Z,101444.22
2022-10-31T04:54:46.749Z,101459.00
2022-10-31T04:57:13.154Z,101454.63
2022-10-31T04:59:39.568Z,101458.84
2022-10-31T05:02:06.114Z,101456.25
2022-10-31T05:04:32.634Z,101452.72
2022-10-31T05:06:59.042Z,101461.28
2022-10-31T05:09:25.463Z,101456.84
2022-10-31T05:11:51.905Z,101454.19
2022-10-31T05:14:18.329Z,101459.38
2022-10-31T05:16:44.752Z,101461.97
2022-10-31T05:19:11.182Z,101456.06
2022-10-31T05:21:37.583Z,101449.28
2022-10-31T05:24:04.353Z,101449.50
2022-10-31T05:26:30.746Z,101447.91
2022-10-31T05:28:57.176Z,101443.75
2022-10-31T05:31:23.645Z,101445.34
2022-10-31T05:33:50.073Z,101449.56
2022-10-31T05:36:16.455Z,101450.22
2022-10-31T05:38:42.883Z,101448.38
2022-10-31T05:41:10.263Z,101448.22
2022-10-31T05:43:36.734Z,101448.97
2022-10-31T05:46:03.150Z,101447.94
2022-10-31T05:48:29.611Z,101448.75
2022-10-31T05:50:56.036Z,101449.47
2022-10-31T05:53:22.433Z,101452.94
2022-10-31T05:55:48.832Z,101459.88
2022-10-31T05:58:15.358Z,101470.25
2022-10-31T06:00:42.748Z,101465.06
2022-10-31T06:05:41.398Z,101469.31
2022-10-31T06:08:07.804Z,101472.75
2022-10-31T06:10:34.438Z,101473.69
2022-10-31T06:13:00.888Z,101472.03
2022-10-31T06:15:27.339Z,101483.34
2022-10-31T06:18:04.751Z,101479.03
2022-10-31T06:20:31.714Z,101475.66
2022-10-31T06:22:58.524Z,101485.25
2022-10-31T06:25:25.183Z,101477.53
2022-10-31T06:27:51.589Z,101472.44
2022-10-31T06:30:18.167Z,101477.78
2022-10-31T06:32:44.599Z,101474.47
2022-10-31T06:35:11.187Z,101487.75
2022-10-31T06:37:38.307Z,101494.06
2022-10-31T06:40:05.172Z,101492.50
2022-10-31T06:42:31.584Z,101502.28
2022-10-31T06:44:57.992Z,101510.31
2022-10-31T06:47:24.618Z,101509.75
2022-10-31T06:49:54.645Z,101524.75
2022-10-31T06:52:21.079Z,101524.25
2022-10-31T06:54:47.578Z,101522.00
2022-10-31T06:57:13.995Z,101516.19
2022-10-31T06:59:40.430Z,101514.72
2022-10-31T07:02:10.076Z,101530.59
2022-10-31T07:04:36.606Z,101529.94
2022-10-31T07:07:03.191Z,101533.75
2022-10-31T07:09:29.616Z,101528.75
2022-10-31T07:11:56.024Z,101536.00
2022-10-31T07:14:22.465Z,101543.16
2022-10-31T07:16:50.909Z,101544.34
2022-10-31T07:19:17.933Z,101544.56
2022-10-31T07:21:44.370Z,101542.16
2022-10-31T07:24:11.790Z,101542.25
2022-10-31T07:26:38.243Z,101549.41
2022-10-31T07:29:04.734Z,101536.63
2022-10-31T07:31:31.124Z,101542.09
2022-10-31T07:33:57.567Z,101536.34
2022-10-31T07:36:23.961Z,101541.75
2022-10-31T07:38:50.879Z,101553.97
2022-10-31T07:41:17.276Z,101540.31
2022-10-31T07:43:43.723Z,101548.34
2022-10-31T07:46:10.260Z,101541.56
2022-10-31T07:48:36.703Z,101542.66
2022-10-31T07:51:03.180Z,101553.19
2022-10-31T07:53:29.607Z,101537.56
2022-10-31T07:55:56.033Z,101541.06
2022-10-31T07:58:22.497Z,101537.66
2022-10-31T08:00:49.191Z,101539.53
2022-10-31T08:03:17.811Z,101543.19
2022-10-31T08:05:46.726Z,101559.81
2022-10-31T08:08:14.327Z,101559.06
2022-10-31T08:10:41.569Z,101556.59
2022-10-31T08:13:10.557Z,101548.03
2022-10-31T08:15:39.174Z,101551.66
2022-10-31T08:18:06.714Z,101547.34
2022-10-31T08:20:33.234Z,101554.47
2022-10-31T08:23:01.704Z,101550.25
2022-10-31T08:25:32.417Z,101542.59
2022-10-31T08:28:02.637Z,101549.66
2022-10-31T08:30:31.595Z,101542.81
2022-10-31T08:33:13.902Z,101547.38
2022-10-31T08:35:40.938Z,101540.53
2022-10-31T08:38:08.675Z,101543.28
2022-10-31T08:40:36.164Z,101538.25
2022-10-31T08:43:04.824Z,101540.13
2022-10-31T08:45:32.505Z,101541.06
2022-10-31T08:48:04.207Z,101528.13
2022-10-31T08:50:32.125Z,101534.22
2022-10-31T08:53:12.641Z,101530.03
2022-10-31T08:55:40.034Z,101524.88
2022-10-31T08:58:10.691Z,101524.97
2022-10-31T09:00:37.643Z,101531.16
2022-10-31T09:03:06.504Z,101526.09
2022-10-31T09:05:33.709Z,101539.22
2022-10-31T09:08:02.442Z,101530.38
2022-10-31T09:10:29.992Z,101530.66
2022-10-31T09:13:09.039Z,101528.94
2022-10-31T09:15:37.015Z,101516.84
2022-10-31T09:18:04.004Z,101522.28
2022-10-31T09:20:32.053Z,101520.56
2022-10-31T09:22:59.950Z,101524.13
2022-10-31T09:25:27.194Z,101532.91
2022-10-31T09:28:00.517Z,101530.28
2022-10-31T09:30:30.205Z,101528.69
2022-10-31T09:33:01.758Z,101525.22
2022-10-31T09:35:29.025Z,101528.72
2022-10-31T09:37:56.428Z,101528.75
2022-10-31T09:40:24.335Z,101524.50
2022-10-31T09:43:15.684Z,101510.78
2022-10-31T09:45:49.082Z,101515.28
2022-10-31T09:48:33.909Z,101524.09
2022-10-31T09:51:13.235Z,101521.56
2022-10-31T09:53:43.701Z,101531.16
2022-10-31T09:56:13.965Z,101523.44
2022-10-31T09:58:46.304Z,101525.22
2022-10-31T10:01:34.534Z,101524.53
2022-10-31T10:04:40.346Z,101522.81
2022-10-31T10:07:31.541Z,101525.50
2022-10-31T10:09:59.175Z,101523.75
2022-10-31T10:12:40.993Z,101524.66
2022-10-31T10:15:22.101Z,101530.81
2022-10-31T10:17:55.980Z,101529.91
2022-10-31T10:20:35.390Z,101525.63
2022-10-31T10:23:27.873Z,101528.31
2022-10-31T10:26:08.750Z,101526.56
2022-10-31T10:28:40.903Z,101530.16
2022-10-31T10:31:18.412Z,101531.94
2022-10-31T10:34:12.619Z,101530.19
2022-10-31T10:36:46.152Z,101526.91
2022-10-31T10:39:24.169Z,101518.19
2022-10-31T10:42:10.728Z,101518.28
2022-10-31T10:45:03.637Z,101516.50
2022-10-31T10:47:44.199Z,101513.09
2022-10-31T10:50:16.520Z,101513.22
2022-10-31T10:53:00.656Z,101509.91
2022-10-31T10:55:40.589Z,101514.34
2022-10-31T10:58:09.083Z,101514.59
2022-10-31T11:00:39.300Z,101507.66
2022-10-31T11:03:06.608Z,101507.75
2022-10-31T11:05:46.035Z,101494.78
2022-10-31T11:08:13.050Z,101499.22
2022-10-31T11:10:39.668Z,101491.41
2022-10-31T11:13:06.128Z,101494.97
2022-10-31T11:15:38.077Z,101494.94
2022-10-31T11:18:05.331Z,101490.75
2022-10-31T11:20:37.157Z,101475.19
2022-10-31T11:23:24.420Z,101475.25
2022-10-31T11:26:00.850Z,101468.41
2022-10-31T11:28:30.300Z,101471.16
2022-10-31T11:31:00.237Z,101472.13
2022-10-31T11:33:46.260Z,101471.44
2022-10-31T11:36:33.506Z,101464.56
2022-10-31T11:39:01.082Z,101470.78
2022-10-31T11:41:40.653Z,101466.47
2022-10-31T11:44:17.516Z,101467.38
2022-10-31T11:46:46.863Z,101468.25
2022-10-31T11:49:43.037Z,101467.47
2022-10-31T11:52:15.417Z,101466.56
2022-10-31T11:54:55.912Z,101461.41
2022-10-31T11:57:30.698Z,101458.88
2022-10-31T11:59:59.691Z,101462.44
2022-10-31T12:02:27.299Z,101454.63
2022-10-31T12:05:02.436Z,101464.28
2022-10-31T12:07:29.021Z,101464.28
2022-10-31T12:09:55.553Z,101457.44
2022-10-31T12:12:24.982Z,101453.09
2022-10-31T12:14:57.210Z,101452.19
2022-10-31T12:17:42.583Z,101448.78
2022-10-31T12:20:30.296Z,101447.13
2022-10-31T12:23:05.913Z,101432.28
2022-10-31T12:25:42.969Z,101425.38
2022-10-31T12:28:32.657Z,101434.19
2022-10-31T12:31:08.194Z,101423.75
2022-10-31T12:33:42.313Z,101433.34
2022-10-31T12:36:17.904Z,101429.00
2022-10-31T12:38:50.285Z,101418.41
2022-10-31T12:41:22.744Z,101421.06
2022-10-31T12:44:01.655Z,101410.56
2022-10-31T12:46:54.656Z,101414.13
2022-10-31T12:49:29.005Z,101413.22
2022-10-31T12:52:10.495Z,101412.19
2022-10-31T12:54:49.190Z,101413.09
2022-10-31T12:57:18.809Z,101405.19
2022-10-31T13:00:06.025Z,101406.88
2022-10-31T13:02:47.293Z,101400.69
2022-10-31T13:05:32.509Z,101402.38
2022-10-31T13:08:04.024Z,101400.50
2022-10-31T13:10:34.051Z,101401.31
2022-10-31T13:13:07.971Z,101398.69
2022-10-31T13:15:40.031Z,101396.91
2022-10-31T13:18:12.866Z,101393.34
2022-10-31T13:20:43.334Z,101385.34
2022-10-31T13:26:41.998Z,101377.44
2022-10-31T13:29:31.789Z,101383.50
2022-10-31T13:32:00.678Z,101389.53
2022-10-31T13:34:28.509Z,101392.13
2022-10-31T13:37:16.418Z,101390.31
2022-10-31T13:40:21.198Z,101379.78
2022-10-31T13:43:08.160Z,101387.53
2022-10-31T13:45:34.604Z,101382.28
2022-10-31T13:48:16.416Z,101385.66
2022-10-31T13:50:44.293Z,101385.59
2022-10-31T13:53:20.265Z,101374.09
2022-10-31T13:55:49.456Z,101381.06
2022-10-31T13:58:25.293Z,101374.84
2022-10-31T14:01:16.563Z,101363.41
2022-10-31T14:06:37.888Z,101364.16
2022-10-31T14:09:04.836Z,101361.47
2022-10-31T14:11:34.592Z,101363.19
2022-10-31T14:14:03.941Z,101360.56
2022-10-31T14:16:31.832Z,101368.34
2022-10-31T14:19:07.568Z,101355.25
2022-10-31T14:21:42.935Z,101363.97
2022-10-31T14:24:26.125Z,101359.53
2022-10-31T14:27:03.914Z,101361.97
2022-10-31T14:29:34.958Z,101350.59
2022-10-31T14:32:11.745Z,101357.53
2022-10-31T14:34:41.876Z,101350.44
2022-10-31T14:37:39.623Z,101351.19
2022-10-31T14:40:14.999Z,101345.00
2022-10-31T14:42:46.448Z,101342.28
2022-10-31T14:45:40.368Z,101337.00
2022-10-31T14:48:31.722Z,101339.53
2022-10-31T14:50:59.501Z,101335.91
2022-10-31T14:53:28.601Z,101339.28
2022-10-31T14:55:56.781Z,101332.31
2022-10-31T14:58:43.713Z,101333.09
2022-10-31T15:01:22.327Z,101335.66
2022-10-31T15:04:17.610Z,101328.59
2022-10-31T15:06:43.388Z,101329.41
2022-10-31T15:09:27.439Z,101328.53
2022-10-31T15:11:53.893Z,101340.69
2022-10-31T15:14:32.817Z,101326.69
2022-10-31T15:17:00.329Z,101324.88
2022-10-31T15:19:28.788Z,101319.66
2022-10-31T15:21:56.834Z,101323.97
2022-10-31T15:24:25.896Z,101316.91
2022-10-31T15:26:53.727Z,101310.75
2022-10-31T15:29:24.735Z,101310.69
2022-10-31T15:31:52.030Z,101300.03
2022-10-31T15:34:25.870Z,101293.91
2022-10-31T15:36:52.371Z,101292.97
2022-10-31T15:39:19.474Z,101295.63
2022-10-31T15:41:57.337Z,101287.75
2022-10-31T15:44:34.104Z,101294.75
2022-10-31T15:47:06.200Z,101290.38
2022-10-31T15:49:39.567Z,101293.88
2022-10-31T15:52:21.648Z,101287.75
2022-10-31T15:54:51.407Z,101288.59
2022-10-31T15:57:18.061Z,101296.44
2022-10-31T15:59:47.632Z,101290.38
2022-10-31T16:02:15.845Z,101291.22
2022-10-31T16:04:54.185Z,101282.44
2022-10-31T16:07:23.562Z,101289.44
2022-10-31T16:10:00.945Z,101284.19
2022-10-31T16:12:34.817Z,101286.84
2022-10-31T16:15:01.606Z,101284.22
2022-10-31T16:17:28.879Z,101285.91
2022-10-31T16:19:58.570Z,101285.91
2022-10-31T16:22:30.164Z,101279.84
2022-10-31T16:25:01.107Z,101281.59
2022-10-31T16:27:30.133Z,101279.00
2022-10-31T16:29:58.115Z,101272.91
2022-10-31T16:32:53.062Z,101269.41
2022-10-31T16:35:34.817Z,101268.53
2022-10-31T16:38:01.260Z,101267.63
2022-10-31T16:40:27.716Z,101265.88
2022-10-31T16:42:54.293Z,101263.22
2022-10-31T16:45:22.990Z,101264.88
2022-10-31T16:47:50.353Z,101260.53
2022-10-31T16:50:20.961Z,101257.91
2022-10-31T16:55:37.220Z,101257.81
2022-10-31T16:58:04.094Z,101256.06
2022-10-31T17:00:31.602Z,101248.19
2022-10-31T17:02:58.014Z,101242.97
2022-10-31T17:05:30.167Z,101248.16
2022-10-31T17:07:57.844Z,101247.22
2022-10-31T17:10:25.039Z,101248.88
2022-10-31T17:12:52.190Z,101242.84
2022-10-31T17:15:23.394Z,101254.97
2022-10-31T17:17:49.859Z,101244.47
2022-10-31T17:20:20.209Z,101247.97
2022-10-31T17:22:46.647Z,101251.44
2022-10-31T17:25:18.329Z,101245.28
2022-10-31T17:27:47.346Z,101247.91
2022-10-31T17:30:14.385Z,101238.28
2022-10-31T17:32:41.819Z,101243.47
2022-10-31T17:35:10.485Z,101240.88
2022-10-31T17:37:37.085Z,101234.69
2022-10-31T17:40:03.700Z,101229.47
2022-10-31T17:42:30.097Z,101226.00
2022-10-31T17:44:56.499Z,101223.31
2022-10-31T17:47:23.216Z,101220.69
2022-10-31T17:49:49.620Z,101219.75
2022-10-31T17:52:16.050Z,101223.22
2022-10-31T17:54:42.458Z,101218.84
2022-10-31T17:57:08.896Z,101210.94
2022-10-31T17:59:35.323Z,101220.53
2022-10-31T18:02:02.971Z,101220.50
2022-10-31T18:04:29.602Z,101213.50
2022-10-31T18:06:56.057Z,101211.69
2022-10-31T18:09:22.490Z,101210.81
2022-10-31T18:11:48.900Z,101203.72
2022-10-31T18:14:15.291Z,101207.13
2022-10-31T18:16:41.710Z,101214.06
2022-10-31T18:19:08.201Z,101207.91
2022-10-31T18:21:34.625Z,101208.75
2022-10-31T18:24:02.899Z,101206.97
2022-10-31T18:26:29.315Z,101206.06
2022-10-31T18:28:55.738Z,101197.28
2022-10-31T18:31:22.181Z,101205.13
2022-10-31T18:33:48.664Z,101199.84
2022-10-31T18:36:15.099Z,101203.28
2022-10-31T18:38:44.783Z,101196.28
2022-10-31T18:41:12.305Z,101203.28
2022-10-31T18:43:38.689Z,101195.50
2022-10-31T18:46:10.382Z,101198.97
2022-10-31T18:48:37.515Z,101202.50
2022-10-31T18:53:36.626Z,101198.13
2022-10-31T18:56:10.402Z,101185.91
2022-10-31T18:58:38.186Z,101184.19
2022-10-31T19:01:09.669Z,101183.31
2022-10-31T19:03:36.442Z,101175.41
2022-10-31T19:06:03.149Z,101176.28
2022-10-31T19:08:29.972Z,101171.91
2022-10-31T19:10:56.537Z,101162.25
2022-10-31T19:13:22.940Z,101167.53
2022-10-31T19:15:49.343Z,101170.97
2022-10-31T19:18:15.756Z,101170.91
2022-10-31T19:20:42.163Z,101156.94
2022-10-31T19:23:08.610Z,101165.66
2022-10-31T19:25:35.136Z,101160.38
2022-10-31T19:28:01.922Z,101155.97
2022-10-31T19:30:28.627Z,101152.47
2022-10-31T19:32:55.888Z,101154.22
2022-10-31T19:35:22.292Z,101140.28
2022-10-31T19:37:48.716Z,101141.16
2022-10-31T19:40:15.488Z,101133.31
2022-10-31T19:42:41.905Z,101133.31
2022-10-31T19:45:08.600Z,101131.56
2022-10-31T19:47:35.000Z,101128.94
2022-10-31T19:50:01.594Z,101132.41
2022-10-31T19:52:28.040Z,101128.03
2022-10-31T19:54:54.461Z,101134.09
2022-10-31T19:57:35.811Z,101132.28
2022-10-31T20:00:07.831Z,101124.50
2022-10-31T20:02:34.331Z,101121.88
2022-10-31T20:05:01.818Z,101116.66
2022-10-31T20:07:28.230Z,101111.44
2022-10-31T20:09:54.721Z,101106.25
2022-10-31T20:12:21.471Z,101101.00
2022-10-31T20:14:49.470Z,101099.22
2022-10-31T20:17:15.926Z,101108.81
2022-10-31T20:19:42.397Z,101107.91
2022-10-31T20:22:08.834Z,101110.47
2022-10-31T20:24:35.808Z,101103.53
2022-10-31T20:27:03.222Z,101102.66
2022-10-31T20:29:29.657Z,101101.75
2022-10-31T20:31:57.108Z,101113.94
2022-10-31T20:34:23.501Z,101109.50
2022-10-31T20:36:49.931Z,101105.19
2022-10-31T20:39:16.358Z,101103.34
2022-10-31T20:41:42.780Z,101102.47
2022-10-31T20:44:09.285Z,101098.94
2022-10-31T20:46:35.689Z,101098.91
2022-10-31T20:49:02.158Z,101098.91
2022-10-31T20:51:28.896Z,101098.03
2022-10-31T20:53:56.613Z,101095.41
2022-10-31T20:56:25.039Z,101085.81
2022-10-31T20:58:51.524Z,101088.47
2022-10-31T21:01:20.487Z,101081.50
2022-10-31T21:03:47.641Z,101077.13
2022-10-31T21:06:14.920Z,101079.72
2022-10-31T21:08:42.718Z,101079.63
2022-10-31T21:11:16.076Z,101079.66
2022-10-31T21:13:43.828Z,101080.53
2022-10-31T21:16:12.979Z,101077.88
2022-10-31T21:18:40.776Z,101070.88
2022-10-31T21:21:12.289Z,101064.81
2022-10-31T21:23:38.921Z,101067.44
2022-10-31T21:26:20.963Z,101054.38
2022-10-31T21:28:48.425Z,101052.66
2022-10-31T21:31:17.047Z,101050.00
2022-10-31T21:33:44.281Z,101043.88
2022-10-31T21:36:10.887Z,101032.53
2022-10-31T21:38:37.600Z,101039.56
2022-10-31T21:41:12.013Z,101022.09
2022-10-31T21:43:40.085Z,101029.94
2022-10-31T21:46:17.404Z,101023.81
2022-10-31T21:48:44.567Z,101018.50
2022-10-31T21:51:12.606Z,101023.72
2022-10-31T21:53:58.171Z,101031.50
2022-10-31T21:56:25.038Z,101020.19
2022-10-31T21:58:52.254Z,101014.97
2022-10-31T22:01:19.100Z,101014.09
2022-10-31T22:03:45.612Z,101011.47
2022-10-31T22:06:12.754Z,101006.22
2022-10-31T22:08:40.583Z,101004.50
2022-10-31T22:11:09.573Z,100988.81
2022-10-31T22:13:36.890Z,100980.97
2022-10-31T22:16:04.865Z,100978.25
2022-10-31T22:18:31.508Z,100970.44
2022-10-31T22:21:06.044Z,100968.72
2022-10-31T22:23:32.956Z,100960.84
2022-10-31T22:26:07.178Z,100957.31
2022-10-31T22:28:34.147Z,100954.69
2022-10-31T22:31:07.799Z,100941.59
2022-10-31T22:33:34.580Z,100931.16
2022-10-31T22:36:05.608Z,100930.25
2022-10-31T22:38:39.774Z,100923.28
2022-10-31T22:41:17.332Z,100931.06
2022-10-31T22:43:43.815Z,100936.28
2022-10-31T22:46:24.396Z,100924.09
2022-10-31T22:48:53.140Z,100904.91
2022-10-31T22:51:30.829Z,100924.91
2022-10-31T22:53:57.429Z,100923.13
2022-10-31T22:56:26.184Z,100915.25
2022-10-31T22:58:52.807Z,100908.28
2022-10-31T23:01:21.742Z,100919.56
2022-10-31T23:03:48.503Z,100926.50
2022-10-31T23:06:17.126Z,100929.94
2022-10-31T23:08:43.765Z,100929.06
2022-10-31T23:11:32.350Z,100922.09
2022-10-31T23:14:15.685Z,100915.13
2022-10-31T23:16:47.018Z,100903.78
2022-10-31T23:19:18.108Z,100895.94
2022-10-31T23:21:57.014Z,100899.38
2022-10-31T23:24:39.313Z,100902.81
2022-10-31T23:27:14.354Z,100889.78
2022-10-31T23:29:47.680Z,100898.47
2022-10-31T23:32:22.788Z,100899.28
2022-10-31T23:34:50.502Z,100894.06
2022-10-31T23:37:18.149Z,100889.69
2022-10-31T23:39:44.760Z,100875.81
2022-10-31T23:42:11.295Z,100871.44
2022-10-31T23:44:37.831Z,100865.34
2022-10-31T23:47:04.962Z,100867.94
2022-10-31T23:49:31.522Z,100861.88
2022-10-31T23:51:58.051Z,100869.69
2022-10-31T23:54:25.414Z,100867.91
2022-10-31T23:56:52.313Z,100856.63
2022-10-31T23:59:18.828Z,100870.53
